sensor_id;sensor_type;location;lat;lon;timestamp;P1;durP1;ratioP1;P2;durP2;ratioP2
18455;SDS011;9357;49.900;8.208;2023-04-25T00:00:27;7.20;;;5.80;;
18455;SDS011;9357;49.900;8.208;2023-04-25T00:01:59;6.55;;;5.90;;
18455;SDS011;9357;49.900;8.208;2023-04-25T00:03:31;7.65;;;5.85;;
18455;SDS011;9357;49.900;8.208;2023-04-25T00:05:05;6.70;;;6.00;;
18455;SDS011;9357;49.900;8.208;2023-04-25T00:06:38;6.70;;;6.00;;
18455;SDS011;9357;49.900;8.208;2023-04-25T00:08:11;7.18;;;5.80;;
18455;SDS011;9357;49.900;8.208;2023-04-25T00:09:44;6.77;;;6.07;;
18455;SDS011;9357;49.900;8.208;2023-04-25T00:11:17;7.00;;;6.30;;
18455;SDS011;9357;49.900;8.208;2023-04-25T00:12:50;7.40;;;6.20;;
18455;SDS011;9357;49.900;8.208;2023-04-25T00:14:24;6.17;;;5.50;;
18455;SDS011;9357;49.900;8.208;2023-04-25T00:15:56;6.97;;;6.00;;
18455;SDS011;9357;49.900;8.208;2023-04-25T00:17:29;8.50;;;5.88;;
18455;SDS011;9357;49.900;8.208;2023-04-25T00:19:02;7.10;;;5.70;;
18455;SDS011;9357;49.900;8.208;2023-04-25T00:20:35;6.55;;;5.95;;
18455;SDS011;9357;49.900;8.208;2023-04-25T00:22:08;7.15;;;6.45;;
18455;SDS011;9357;49.900;8.208;2023-04-25T00:23:40;6.57;;;5.85;;
18455;SDS011;9357;49.900;8.208;2023-04-25T00:25:12;7.15;;;6.30;;
18455;SDS011;9357;49.900;8.208;2023-04-25T00:26:45;6.68;;;5.88;;
18455;SDS011;9357;49.900;8.208;2023-04-25T00:28:18;6.25;;;5.65;;
18455;SDS011;9357;49.900;8.208;2023-04-25T00:29:52;6.30;;;5.53;;
18455;SDS011;9357;49.900;8.208;2023-04-25T00:31:25;6.28;;;5.25;;
18455;SDS011;9357;49.900;8.208;2023-04-25T00:32:58;6.38;;;5.65;;
18455;SDS011;9357;49.900;8.208;2023-04-25T00:34:31;7.50;;;5.45;;
18455;SDS011;9357;49.900;8.208;2023-04-25T00:36:04;5.88;;;5.38;;
18455;SDS011;9357;49.900;8.208;2023-04-25T00:37:37;6.75;;;5.10;;
18455;SDS011;9357;49.900;8.208;2023-04-25T00:39:10;5.22;;;4.72;;
18455;SDS011;9357;49.900;8.208;2023-04-25T00:40:43;6.25;;;5.65;;
18455;SDS011;9357;49.900;8.208;2023-04-25T00:42:15;6.78;;;6.07;;
18455;SDS011;9357;49.900;8.208;2023-04-25T00:43:48;6.95;;;6.03;;
18455;SDS011;9357;49.900;8.208;2023-04-25T00:45:23;7.10;;;6.18;;
18455;SDS011;9357;49.900;8.208;2023-04-25T00:47:01;5.78;;;5.20;;
18455;SDS011;9357;49.900;8.208;2023-04-25T00:48:34;5.90;;;5.30;;
18455;SDS011;9357;49.900;8.208;2023-04-25T00:50:07;6.13;;;5.53;;
18455;SDS011;9357;49.900;8.208;2023-04-25T00:51:40;5.95;;;5.38;;
18455;SDS011;9357;49.900;8.208;2023-04-25T00:53:15;5.40;;;4.90;;
18455;SDS011;9357;49.900;8.208;2023-04-25T00:54:47;6.55;;;5.80;;
18455;SDS011;9357;49.900;8.208;2023-04-25T00:56:20;6.22;;;5.60;;
18455;SDS011;9357;49.900;8.208;2023-04-25T00:57:53;6.93;;;5.95;;
18455;SDS011;9357;49.900;8.208;2023-04-25T00:59:26;6.10;;;5.50;;
18455;SDS011;9357;49.900;8.208;2023-04-25T01:01:02;6.22;;;5.63;;
18455;SDS011;9357;49.900;8.208;2023-04-25T01:02:34;6.38;;;5.70;;
18455;SDS011;9357;49.900;8.208;2023-04-25T01:04:07;6.43;;;5.63;;
18455;SDS011;9357;49.900;8.208;2023-04-25T01:05:40;8.15;;;5.97;;
18455;SDS011;9357;49.900;8.208;2023-04-25T01:07:13;6.53;;;5.82;;
18455;SDS011;9357;49.900;8.208;2023-04-25T01:08:47;6.72;;;6.07;;
18455;SDS011;9357;49.900;8.208;2023-04-25T01:10:18;7.38;;;6.20;;
18455;SDS011;9357;49.900;8.208;2023-04-25T01:11:51;7.35;;;6.47;;
18455;SDS011;9357;49.900;8.208;2023-04-25T01:13:24;7.78;;;6.80;;
18455;SDS011;9357;49.900;8.208;2023-04-25T01:14:57;7.60;;;5.95;;
18455;SDS011;9357;49.900;8.208;2023-04-25T01:16:31;6.40;;;5.80;;
18455;SDS011;9357;49.900;8.208;2023-04-25T01:18:04;6.38;;;5.68;;
18455;SDS011;9357;49.900;8.208;2023-04-25T01:19:38;6.30;;;5.47;;
18455;SDS011;9357;49.900;8.208;2023-04-25T01:21:12;6.78;;;5.50;;
18455;SDS011;9357;49.900;8.208;2023-04-25T01:22:45;7.00;;;6.30;;
18455;SDS011;9357;49.900;8.208;2023-04-25T01:24:18;6.60;;;5.70;;
18455;SDS011;9357;49.900;8.208;2023-04-25T01:25:51;6.82;;;5.90;;
18455;SDS011;9357;49.900;8.208;2023-04-25T01:27:24;7.00;;;6.30;;
18455;SDS011;9357;49.900;8.208;2023-04-25T01:28:57;6.38;;;5.75;;
18455;SDS011;9357;49.900;8.208;2023-04-25T01:30:30;5.93;;;5.25;;
18455;SDS011;9357;49.900;8.208;2023-04-25T01:32:04;5.75;;;5.25;;
18455;SDS011;9357;49.900;8.208;2023-04-25T01:33:38;6.38;;;5.57;;
18455;SDS011;9357;49.900;8.208;2023-04-25T01:35:11;6.20;;;5.60;;
18455;SDS011;9357;49.900;8.208;2023-04-25T01:36:45;6.90;;;6.20;;
18455;SDS011;9357;49.900;8.208;2023-04-25T01:38:21;6.50;;;5.80;;
18455;SDS011;9357;49.900;8.208;2023-04-25T01:39:53;6.95;;;5.93;;
18455;SDS011;9357;49.900;8.208;2023-04-25T01:41:26;6.20;;;5.60;;
18455;SDS011;9357;49.900;8.208;2023-04-25T01:42:59;6.55;;;5.78;;
18455;SDS011;9357;49.900;8.208;2023-04-25T01:44:32;6.22;;;5.63;;
18455;SDS011;9357;49.900;8.208;2023-04-25T01:46:05;6.97;;;6.20;;
18455;SDS011;9357;49.900;8.208;2023-04-25T01:47:37;8.02;;;6.15;;
18455;SDS011;9357;49.900;8.208;2023-04-25T01:49:11;6.05;;;5.43;;
18455;SDS011;9357;49.900;8.208;2023-04-25T01:50:43;6.38;;;5.78;;
18455;SDS011;9357;49.900;8.208;2023-04-25T01:52:17;6.95;;;5.78;;
18455;SDS011;9357;49.900;8.208;2023-04-25T01:53:50;6.03;;;5.43;;
18455;SDS011;9357;49.900;8.208;2023-04-25T01:55:23;6.03;;;5.43;;
18455;SDS011;9357;49.900;8.208;2023-04-25T01:56:56;7.55;;;5.88;;
18455;SDS011;9357;49.900;8.208;2023-04-25T01:58:29;6.20;;;5.57;;
18455;SDS011;9357;49.900;8.208;2023-04-25T02:00:03;6.30;;;5.22;;
18455;SDS011;9357;49.900;8.208;2023-04-25T02:01:36;7.18;;;5.65;;
18455;SDS011;9357;49.900;8.208;2023-04-25T02:03:09;6.28;;;5.68;;
18455;SDS011;9357;49.900;8.208;2023-04-25T02:04:42;6.53;;;5.68;;
18455;SDS011;9357;49.900;8.208;2023-04-25T02:06:15;6.47;;;5.65;;
18455;SDS011;9357;49.900;8.208;2023-04-25T02:07:49;6.60;;;5.80;;
18455;SDS011;9357;49.900;8.208;2023-04-25T02:09:22;6.78;;;6.07;;
18455;SDS011;9357;49.900;8.208;2023-04-25T02:10:55;6.15;;;5.55;;
18455;SDS011;9357;49.900;8.208;2023-04-25T02:12:26;6.45;;;5.85;;
18455;SDS011;9357;49.900;8.208;2023-04-25T02:13:59;7.03;;;6.22;;
18455;SDS011;9357;49.900;8.208;2023-04-25T02:15:32;6.65;;;5.85;;
18455;SDS011;9357;49.900;8.208;2023-04-25T02:17:05;7.07;;;6.15;;
18455;SDS011;9357;49.900;8.208;2023-04-25T02:18:38;7.18;;;6.30;;
18455;SDS011;9357;49.900;8.208;2023-04-25T02:20:11;6.95;;;6.20;;
18455;SDS011;9357;49.900;8.208;2023-04-25T02:21:44;6.47;;;5.88;;
18455;SDS011;9357;49.900;8.208;2023-04-25T02:23:18;6.03;;;5.43;;
18455;SDS011;9357;49.900;8.208;2023-04-25T02:24:50;7.07;;;5.55;;
18455;SDS011;9357;49.900;8.208;2023-04-25T02:26:25;6.07;;;5.38;;
18455;SDS011;9357;49.900;8.208;2023-04-25T02:27:57;6.38;;;5.63;;
18455;SDS011;9357;49.900;8.208;2023-04-25T02:29:30;6.78;;;5.43;;
18455;SDS011;9357;49.900;8.208;2023-04-25T02:31:03;6.30;;;5.68;;
18455;SDS011;9357;49.900;8.208;2023-04-25T02:32:36;6.82;;;5.88;;
18455;SDS011;9357;49.900;8.208;2023-04-25T02:34:09;6.35;;;5.72;;
18455;SDS011;9357;49.900;8.208;2023-04-25T02:35:42;7.78;;;6.50;;
18455;SDS011;9357;49.900;8.208;2023-04-25T02:37:14;7.40;;;6.57;;
18455;SDS011;9357;49.900;8.208;2023-04-25T02:38:48;6.65;;;5.95;;
18455;SDS011;9357;49.900;8.208;2023-04-25T02:40:20;6.63;;;5.93;;
18455;SDS011;9357;49.900;8.208;2023-04-25T02:41:53;6.82;;;6.13;;
18455;SDS011;9357;49.900;8.208;2023-04-25T02:43:26;7.78;;;6.32;;
18455;SDS011;9357;49.900;8.208;2023-04-25T02:44:58;6.88;;;6.20;;
18455;SDS011;9357;49.900;8.208;2023-04-25T02:46:31;6.90;;;6.20;;
18455;SDS011;9357;49.900;8.208;2023-04-25T02:48:08;6.82;;;6.10;;
18455;SDS011;9357;49.900;8.208;2023-04-25T02:49:41;6.90;;;6.20;;
18455;SDS011;9357;49.900;8.208;2023-04-25T02:51:12;7.80;;;6.15;;
18455;SDS011;9357;49.900;8.208;2023-04-25T02:52:47;7.63;;;6.65;;
18455;SDS011;9357;49.900;8.208;2023-04-25T02:54:21;7.38;;;6.57;;
18455;SDS011;9357;49.900;8.208;2023-04-25T02:55:54;7.07;;;6.38;;
18455;SDS011;9357;49.900;8.208;2023-04-25T02:57:29;7.85;;;6.85;;
18455;SDS011;9357;49.900;8.208;2023-04-25T02:59:02;8.70;;;6.78;;
18455;SDS011;9357;49.900;8.208;2023-04-25T03:00:33;7.82;;;6.55;;
18455;SDS011;9357;49.900;8.208;2023-04-25T03:02:06;8.98;;;7.60;;
18455;SDS011;9357;49.900;8.208;2023-04-25T03:03:39;9.63;;;7.22;;
18455;SDS011;9357;49.900;8.208;2023-04-25T03:05:12;8.13;;;6.78;;
18455;SDS011;9357;49.900;8.208;2023-04-25T03:06:44;7.90;;;7.10;;
18455;SDS011;9357;49.900;8.208;2023-04-25T03:08:17;7.40;;;6.70;;
18455;SDS011;9357;49.900;8.208;2023-04-25T03:09:51;7.80;;;7.00;;
18455;SDS011;9357;49.900;8.208;2023-04-25T03:11:24;8.88;;;7.22;;
18455;SDS011;9357;49.900;8.208;2023-04-25T03:12:57;8.73;;;7.00;;
18455;SDS011;9357;49.900;8.208;2023-04-25T03:14:30;7.63;;;6.80;;
18455;SDS011;9357;49.900;8.208;2023-04-25T03:16:03;7.45;;;6.25;;
18455;SDS011;9357;49.900;8.208;2023-04-25T03:17:36;6.78;;;5.95;;
18455;SDS011;9357;49.900;8.208;2023-04-25T03:19:09;7.43;;;6.70;;
18455;SDS011;9357;49.900;8.208;2023-04-25T03:20:41;8.82;;;6.90;;
18455;SDS011;9357;49.900;8.208;2023-04-25T03:22:14;8.52;;;6.68;;
18455;SDS011;9357;49.900;8.208;2023-04-25T03:23:47;7.45;;;6.65;;
18455;SDS011;9357;49.900;8.208;2023-04-25T03:25:21;8.30;;;6.65;;
18455;SDS011;9357;49.900;8.208;2023-04-25T03:26:54;6.90;;;6.20;;
18455;SDS011;9357;49.900;8.208;2023-04-25T03:28:27;8.25;;;7.35;;
18455;SDS011;9357;49.900;8.208;2023-04-25T03:29:59;8.70;;;7.10;;
18455;SDS011;9357;49.900;8.208;2023-04-25T03:31:31;9.20;;;7.80;;
18455;SDS011;9357;49.900;8.208;2023-04-25T03:33:04;10.02;;;8.40;;
18455;SDS011;9357;49.900;8.208;2023-04-25T03:34:36;9.18;;;7.50;;
18455;SDS011;9357;49.900;8.208;2023-04-25T03:36:09;8.10;;;6.88;;
18455;SDS011;9357;49.900;8.208;2023-04-25T03:37:41;8.90;;;6.88;;
18455;SDS011;9357;49.900;8.208;2023-04-25T03:39:16;7.93;;;6.93;;
18455;SDS011;9357;49.900;8.208;2023-04-25T03:40:51;9.55;;;6.97;;
18455;SDS011;9357;49.900;8.208;2023-04-25T03:42:24;9.25;;;7.20;;
18455;SDS011;9357;49.900;8.208;2023-04-25T03:43:56;9.02;;;7.25;;
18455;SDS011;9357;49.900;8.208;2023-04-25T03:45:29;8.05;;;6.88;;
18455;SDS011;9357;49.900;8.208;2023-04-25T03:47:02;8.57;;;6.80;;
18455;SDS011;9357;49.900;8.208;2023-04-25T03:48:35;8.32;;;6.90;;
18455;SDS011;9357;49.900;8.208;2023-04-25T03:50:08;8.57;;;7.43;;
18455;SDS011;9357;49.900;8.208;2023-04-25T03:51:41;9.35;;;7.75;;
18455;SDS011;9357;49.900;8.208;2023-04-25T03:53:14;8.27;;;7.18;;
18455;SDS011;9357;49.900;8.208;2023-04-25T03:54:46;8.88;;;7.55;;
18455;SDS011;9357;49.900;8.208;2023-04-25T03:56:20;8.20;;;7.10;;
18455;SDS011;9357;49.900;8.208;2023-04-25T03:57:53;9.05;;;7.78;;
18455;SDS011;9357;49.900;8.208;2023-04-25T03:59:26;9.32;;;7.57;;
18455;SDS011;9357;49.900;8.208;2023-04-25T04:00:59;9.60;;;7.30;;
18455;SDS011;9357;49.900;8.208;2023-04-25T04:02:33;9.80;;;7.50;;
18455;SDS011;9357;49.900;8.208;2023-04-25T04:04:08;8.75;;;7.40;;
18455;SDS011;9357;49.900;8.208;2023-04-25T04:05:42;9.43;;;8.00;;
18455;SDS011;9357;49.900;8.208;2023-04-25T04:07:14;7.78;;;6.97;;
18455;SDS011;9357;49.900;8.208;2023-04-25T04:08:47;10.65;;;7.28;;
18455;SDS011;9357;49.900;8.208;2023-04-25T04:10:20;8.52;;;7.63;;
18455;SDS011;9357;49.900;8.208;2023-04-25T04:11:54;10.07;;;8.45;;
18455;SDS011;9357;49.900;8.208;2023-04-25T04:13:27;8.65;;;7.25;;
18455;SDS011;9357;49.900;8.208;2023-04-25T04:15:00;10.50;;;7.38;;
18455;SDS011;9357;49.900;8.208;2023-04-25T04:16:34;9.57;;;7.75;;
18455;SDS011;9357;49.900;8.208;2023-04-25T04:18:07;10.75;;;9.00;;
18455;SDS011;9357;49.900;8.208;2023-04-25T04:19:41;11.80;;;8.73;;
18455;SDS011;9357;49.900;8.208;2023-04-25T04:21:13;11.07;;;8.90;;
18455;SDS011;9357;49.900;8.208;2023-04-25T04:22:46;14.30;;;9.70;;
18455;SDS011;9357;49.900;8.208;2023-04-25T04:24:19;12.00;;;8.75;;
18455;SDS011;9357;49.900;8.208;2023-04-25T04:25:51;12.75;;;9.68;;
18455;SDS011;9357;49.900;8.208;2023-04-25T04:27:26;13.05;;;9.60;;
18455;SDS011;9357;49.900;8.208;2023-04-25T04:28:59;12.25;;;9.63;;
18455;SDS011;9357;49.900;8.208;2023-04-25T04:30:32;14.98;;;10.20;;
18455;SDS011;9357;49.900;8.208;2023-04-25T04:32:07;15.15;;;9.52;;
18455;SDS011;9357;49.900;8.208;2023-04-25T04:33:40;11.55;;;9.13;;
18455;SDS011;9357;49.900;8.208;2023-04-25T04:35:13;12.48;;;10.02;;
18455;SDS011;9357;49.900;8.208;2023-04-25T04:36:45;15.82;;;10.60;;
18455;SDS011;9357;49.900;8.208;2023-04-25T04:38:18;16.08;;;11.40;;
18455;SDS011;9357;49.900;8.208;2023-04-25T04:39:52;15.23;;;11.57;;
18455;SDS011;9357;49.900;8.208;2023-04-25T04:41:25;16.50;;;11.90;;
18455;SDS011;9357;49.900;8.208;2023-04-25T04:42:59;19.30;;;12.20;;
18455;SDS011;9357;49.900;8.208;2023-04-25T04:44:32;18.40;;;12.88;;
18455;SDS011;9357;49.900;8.208;2023-04-25T04:46:05;19.17;;;13.63;;
18455;SDS011;9357;49.900;8.208;2023-04-25T04:47:38;19.08;;;12.93;;
18455;SDS011;9357;49.900;8.208;2023-04-25T04:49:11;20.90;;;12.60;;
18455;SDS011;9357;49.900;8.208;2023-04-25T04:50:44;19.42;;;12.73;;
18455;SDS011;9357;49.900;8.208;2023-04-25T04:52:17;18.73;;;11.73;;
18455;SDS011;9357;49.900;8.208;2023-04-25T04:53:50;23.50;;;12.40;;
18455;SDS011;9357;49.900;8.208;2023-04-25T04:55:23;17.80;;;11.40;;
18455;SDS011;9357;49.900;8.208;2023-04-25T04:56:56;18.40;;;11.77;;
18455;SDS011;9357;49.900;8.208;2023-04-25T04:58:31;19.40;;;12.00;;
18455;SDS011;9357;49.900;8.208;2023-04-25T05:00:04;17.85;;;11.63;;
18455;SDS011;9357;49.900;8.208;2023-04-25T05:01:41;16.55;;;11.40;;
18455;SDS011;9357;49.900;8.208;2023-04-25T05:03:14;19.38;;;11.32;;
18455;SDS011;9357;49.900;8.208;2023-04-25T05:04:47;16.45;;;9.57;;
18455;SDS011;9357;49.900;8.208;2023-04-25T05:06:21;18.35;;;9.40;;
18455;SDS011;9357;49.900;8.208;2023-04-25T05:07:54;16.15;;;8.77;;
18455;SDS011;9357;49.900;8.208;2023-04-25T05:09:27;13.73;;;8.10;;
18455;SDS011;9357;49.900;8.208;2023-04-25T05:10:59;12.60;;;7.53;;
18455;SDS011;9357;49.900;8.208;2023-04-25T05:12:32;12.63;;;7.57;;
18455;SDS011;9357;49.900;8.208;2023-04-25T05:14:08;14.02;;;8.57;;
18455;SDS011;9357;49.900;8.208;2023-04-25T05:15:41;15.60;;;7.60;;
18455;SDS011;9357;49.900;8.208;2023-04-25T05:17:14;13.43;;;8.15;;
18455;SDS011;9357;49.900;8.208;2023-04-25T05:18:46;12.95;;;7.80;;
18455;SDS011;9357;49.900;8.208;2023-04-25T05:20:19;13.48;;;7.80;;
18455;SDS011;9357;49.900;8.208;2023-04-25T05:21:51;11.93;;;6.80;;
18455;SDS011;9357;49.900;8.208;2023-04-25T05:23:24;13.77;;;7.10;;
18455;SDS011;9357;49.900;8.208;2023-04-25T05:24:58;15.55;;;7.88;;
18455;SDS011;9357;49.900;8.208;2023-04-25T05:26:31;14.95;;;7.65;;
18455;SDS011;9357;49.900;8.208;2023-04-25T05:28:04;12.40;;;6.82;;
18455;SDS011;9357;49.900;8.208;2023-04-25T05:29:38;13.82;;;7.28;;
18455;SDS011;9357;49.900;8.208;2023-04-25T05:31:11;16.33;;;7.45;;
18455;SDS011;9357;49.900;8.208;2023-04-25T05:32:44;16.67;;;7.15;;
18455;SDS011;9357;49.900;8.208;2023-04-25T05:34:17;15.27;;;6.70;;
18455;SDS011;9357;49.900;8.208;2023-04-25T05:35:50;12.18;;;6.70;;
18455;SDS011;9357;49.900;8.208;2023-04-25T05:37:23;14.07;;;6.82;;
18455;SDS011;9357;49.900;8.208;2023-04-25T05:38:56;15.43;;;6.95;;
18455;SDS011;9357;49.900;8.208;2023-04-25T05:40:29;16.27;;;7.57;;
18455;SDS011;9357;49.900;8.208;2023-04-25T05:42:01;14.57;;;6.72;;
18455;SDS011;9357;49.900;8.208;2023-04-25T05:43:34;15.43;;;7.00;;
18455;SDS011;9357;49.900;8.208;2023-04-25T05:45:08;13.90;;;7.70;;
18455;SDS011;9357;49.900;8.208;2023-04-25T05:46:41;12.50;;;7.28;;
18455;SDS011;9357;49.900;8.208;2023-04-25T05:48:14;16.20;;;8.02;;
18455;SDS011;9357;49.900;8.208;2023-04-25T05:49:47;14.23;;;7.90;;
18455;SDS011;9357;49.900;8.208;2023-04-25T05:51:19;13.38;;;6.75;;
18455;SDS011;9357;49.900;8.208;2023-04-25T05:52:52;16.77;;;8.20;;
18455;SDS011;9357;49.900;8.208;2023-04-25T05:54:25;17.60;;;8.15;;
18455;SDS011;9357;49.900;8.208;2023-04-25T05:55:57;16.00;;;7.93;;
18455;SDS011;9357;49.900;8.208;2023-04-25T05:57:30;16.95;;;7.50;;
18455;SDS011;9357;49.900;8.208;2023-04-25T05:59:03;13.70;;;7.55;;
18455;SDS011;9357;49.900;8.208;2023-04-25T06:00:36;13.68;;;7.78;;
18455;SDS011;9357;49.900;8.208;2023-04-25T06:02:09;15.70;;;8.00;;
18455;SDS011;9357;49.900;8.208;2023-04-25T06:03:42;15.65;;;8.10;;
18455;SDS011;9357;49.900;8.208;2023-04-25T06:05:15;19.60;;;8.57;;
18455;SDS011;9357;49.900;8.208;2023-04-25T06:06:48;15.13;;;8.68;;
18455;SDS011;9357;49.900;8.208;2023-04-25T06:08:21;15.93;;;8.55;;
18455;SDS011;9357;49.900;8.208;2023-04-25T06:09:53;14.65;;;8.40;;
18455;SDS011;9357;49.900;8.208;2023-04-25T06:11:26;14.50;;;7.90;;
18455;SDS011;9357;49.900;8.208;2023-04-25T06:12:59;15.50;;;8.20;;
18455;SDS011;9357;49.900;8.208;2023-04-25T06:14:32;15.98;;;8.27;;
18455;SDS011;9357;49.900;8.208;2023-04-25T06:16:06;14.57;;;7.63;;
18455;SDS011;9357;49.900;8.208;2023-04-25T06:17:39;17.15;;;8.23;;
18455;SDS011;9357;49.900;8.208;2023-04-25T06:19:12;14.52;;;7.75;;
18455;SDS011;9357;49.900;8.208;2023-04-25T06:20:44;16.75;;;7.55;;
18455;SDS011;9357;49.900;8.208;2023-04-25T06:22:17;14.95;;;8.13;;
18455;SDS011;9357;49.900;8.208;2023-04-25T06:23:50;19.20;;;8.50;;
18455;SDS011;9357;49.900;8.208;2023-04-25T06:25:23;14.18;;;7.93;;
18455;SDS011;9357;49.900;8.208;2023-04-25T06:26:56;15.20;;;7.80;;
18455;SDS011;9357;49.900;8.208;2023-04-25T06:28:29;18.92;;;7.90;;
18455;SDS011;9357;49.900;8.208;2023-04-25T06:30:02;12.80;;;7.18;;
18455;SDS011;9357;49.900;8.208;2023-04-25T06:31:36;14.18;;;8.15;;
18455;SDS011;9357;49.900;8.208;2023-04-25T06:33:09;16.13;;;8.07;;
18455;SDS011;9357;49.900;8.208;2023-04-25T06:34:42;14.13;;;7.22;;
18455;SDS011;9357;49.900;8.208;2023-04-25T06:36:15;12.77;;;7.30;;
18455;SDS011;9357;49.900;8.208;2023-04-25T06:37:47;12.13;;;7.32;;
18455;SDS011;9357;49.900;8.208;2023-04-25T06:39:19;15.65;;;8.20;;
18455;SDS011;9357;49.900;8.208;2023-04-25T06:40:54;12.57;;;7.40;;
18455;SDS011;9357;49.900;8.208;2023-04-25T06:42:27;14.05;;;8.25;;
18455;SDS011;9357;49.900;8.208;2023-04-25T06:44:00;14.95;;;7.80;;
18455;SDS011;9357;49.900;8.208;2023-04-25T06:45:32;14.05;;;7.57;;
18455;SDS011;9357;49.900;8.208;2023-04-25T06:47:07;12.35;;;7.15;;
18455;SDS011;9357;49.900;8.208;2023-04-25T06:48:40;15.70;;;7.60;;
18455;SDS011;9357;49.900;8.208;2023-04-25T06:50:12;12.07;;;7.40;;
18455;SDS011;9357;49.900;8.208;2023-04-25T06:51:45;10.68;;;7.15;;
18455;SDS011;9357;49.900;8.208;2023-04-25T06:53:18;15.10;;;7.47;;
18455;SDS011;9357;49.900;8.208;2023-04-25T06:54:50;16.17;;;7.53;;
18455;SDS011;9357;49.900;8.208;2023-04-25T06:56:23;15.38;;;7.97;;
18455;SDS011;9357;49.900;8.208;2023-04-25T06:57:56;14.80;;;7.72;;
18455;SDS011;9357;49.900;8.208;2023-04-25T06:59:29;12.38;;;7.72;;
18455;SDS011;9357;49.900;8.208;2023-04-25T07:01:01;14.00;;;6.63;;
18455;SDS011;9357;49.900;8.208;2023-04-25T07:02:36;13.15;;;6.75;;
18455;SDS011;9357;49.900;8.208;2023-04-25T07:04:09;14.60;;;8.38;;
18455;SDS011;9357;49.900;8.208;2023-04-25T07:05:42;13.85;;;7.50;;
18455;SDS011;9357;49.900;8.208;2023-04-25T07:07:16;13.35;;;7.72;;
18455;SDS011;9357;49.900;8.208;2023-04-25T07:08:49;15.15;;;8.23;;
18455;SDS011;9357;49.900;8.208;2023-04-25T07:10:22;19.20;;;8.13;;
18455;SDS011;9357;49.900;8.208;2023-04-25T07:11:56;13.95;;;8.07;;
18455;SDS011;9357;49.900;8.208;2023-04-25T07:13:29;13.35;;;7.40;;
18455;SDS011;9357;49.900;8.208;2023-04-25T07:15:02;14.93;;;7.25;;
18455;SDS011;9357;49.900;8.208;2023-04-25T07:16:37;13.68;;;7.00;;
18455;SDS011;9357;49.900;8.208;2023-04-25T07:18:11;12.55;;;5.97;;
18455;SDS011;9357;49.900;8.208;2023-04-25T07:19:44;9.02;;;5.57;;
18455;SDS011;9357;49.900;8.208;2023-04-25T07:21:16;14.63;;;5.67;;
18455;SDS011;9357;49.900;8.208;2023-04-25T07:22:49;10.38;;;6.00;;
18455;SDS011;9357;49.900;8.208;2023-04-25T07:24:22;10.75;;;6.15;;
18455;SDS011;9357;49.900;8.208;2023-04-25T07:25:55;10.25;;;6.10;;
18455;SDS011;9357;49.900;8.208;2023-04-25T07:27:27;10.02;;;6.30;;
18455;SDS011;9357;49.900;8.208;2023-04-25T07:29:00;10.85;;;5.43;;
18455;SDS011;9357;49.900;8.208;2023-04-25T07:30:33;8.10;;;5.77;;
18455;SDS011;9357;49.900;8.208;2023-04-25T07:32:06;10.70;;;6.55;;
18455;SDS011;9357;49.900;8.208;2023-04-25T07:33:41;11.10;;;6.10;;
18455;SDS011;9357;49.900;8.208;2023-04-25T07:35:13;14.75;;;6.00;;
18455;SDS011;9357;49.900;8.208;2023-04-25T07:36:46;12.70;;;6.63;;
18455;SDS011;9357;49.900;8.208;2023-04-25T07:38:19;10.65;;;6.55;;
18455;SDS011;9357;49.900;8.208;2023-04-25T07:39:52;11.30;;;6.18;;
18455;SDS011;9357;49.900;8.208;2023-04-25T07:41:25;12.90;;;6.68;;
18455;SDS011;9357;49.900;8.208;2023-04-25T07:42:57;10.82;;;6.43;;
18455;SDS011;9357;49.900;8.208;2023-04-25T07:44:30;12.73;;;6.47;;
18455;SDS011;9357;49.900;8.208;2023-04-25T07:46:09;12.07;;;6.80;;
18455;SDS011;9357;49.900;8.208;2023-04-25T07:47:42;11.63;;;6.20;;
18455;SDS011;9357;49.900;8.208;2023-04-25T07:49:16;12.80;;;5.85;;
18455;SDS011;9357;49.900;8.208;2023-04-25T07:50:48;12.43;;;6.00;;
18455;SDS011;9357;49.900;8.208;2023-04-25T07:52:21;9.63;;;6.00;;
18455;SDS011;9357;49.900;8.208;2023-04-25T07:53:54;11.13;;;6.30;;
18455;SDS011;9357;49.900;8.208;2023-04-25T07:55:27;12.43;;;6.35;;
18455;SDS011;9357;49.900;8.208;2023-04-25T07:57:00;10.13;;;5.53;;
18455;SDS011;9357;49.900;8.208;2023-04-25T07:58:33;8.97;;;5.83;;
18455;SDS011;9357;49.900;8.208;2023-04-25T08:00:06;9.83;;;5.70;;
18455;SDS011;9357;49.900;8.208;2023-04-25T08:01:41;10.20;;;5.67;;
18455;SDS011;9357;49.900;8.208;2023-04-25T08:03:14;8.53;;;5.57;;
18455;SDS011;9357;49.900;8.208;2023-04-25T08:04:49;8.53;;;4.73;;
18455;SDS011;9357;49.900;8.208;2023-04-25T08:06:22;6.77;;;4.50;;
18455;SDS011;9357;49.900;8.208;2023-04-25T08:07:55;7.43;;;4.00;;
18455;SDS011;9357;49.900;8.208;2023-04-25T08:09:28;4.90;;;3.90;;
18455;SDS011;9357;49.900;8.208;2023-04-25T08:11:05;7.83;;;4.03;;
18455;SDS011;9357;49.900;8.208;2023-04-25T08:12:38;5.30;;;3.67;;
18455;SDS011;9357;49.900;8.208;2023-04-25T08:14:11;6.37;;;3.53;;
18455;SDS011;9357;49.900;8.208;2023-04-25T08:15:44;4.93;;;3.47;;
18455;SDS011;9357;49.900;8.208;2023-04-25T08:17:17;4.60;;;3.40;;
18455;SDS011;9357;49.900;8.208;2023-04-25T08:18:50;4.43;;;3.20;;
18455;SDS011;9357;49.900;8.208;2023-04-25T08:20:24;7.00;;;3.80;;
18455;SDS011;9357;49.900;8.208;2023-04-25T08:21:57;6.63;;;3.40;;
18455;SDS011;9357;49.900;8.208;2023-04-25T08:23:30;5.60;;;3.53;;
18455;SDS011;9357;49.900;8.208;2023-04-25T08:25:03;5.90;;;3.43;;
18455;SDS011;9357;49.900;8.208;2023-04-25T08:26:36;6.50;;;3.50;;
18455;SDS011;9357;49.900;8.208;2023-04-25T08:28:10;4.77;;;3.37;;
18455;SDS011;9357;49.900;8.208;2023-04-25T08:29:42;5.47;;;3.20;;
18455;SDS011;9357;49.900;8.208;2023-04-25T08:31:15;4.80;;;3.10;;
18455;SDS011;9357;49.900;8.208;2023-04-25T08:32:48;5.57;;;3.30;;
18455;SDS011;9357;49.900;8.208;2023-04-25T08:34:21;7.83;;;3.53;;
18455;SDS011;9357;49.900;8.208;2023-04-25T08:35:55;7.73;;;3.27;;
18455;SDS011;9357;49.900;8.208;2023-04-25T08:37:28;6.33;;;2.70;;
18455;SDS011;9357;49.900;8.208;2023-04-25T08:39:01;5.50;;;3.20;;
18455;SDS011;9357;49.900;8.208;2023-04-25T08:40:35;9.53;;;3.40;;
18455;SDS011;9357;49.900;8.208;2023-04-25T08:42:10;9.70;;;3.70;;
18455;SDS011;9357;49.900;8.208;2023-04-25T08:43:44;5.67;;;2.80;;
18455;SDS011;9357;49.900;8.208;2023-04-25T08:45:20;4.43;;;2.40;;
18455;SDS011;9357;49.900;8.208;2023-04-25T08:46:53;4.07;;;2.80;;
18455;SDS011;9357;49.900;8.208;2023-04-25T08:48:27;5.20;;;3.07;;
18455;SDS011;9357;49.900;8.208;2023-04-25T08:50:01;4.40;;;3.10;;
18455;SDS011;9357;49.900;8.208;2023-04-25T08:51:44;3.90;;;2.73;;
18455;SDS011;9357;49.900;8.208;2023-04-25T08:53:25;5.83;;;2.67;;
18455;SDS011;9357;49.900;8.208;2023-04-25T08:55:01;4.73;;;2.63;;
18455;SDS011;9357;49.900;8.208;2023-04-25T08:56:35;3.67;;;2.50;;
18455;SDS011;9357;49.900;8.208;2023-04-25T08:58:10;4.80;;;2.80;;
18455;SDS011;9357;49.900;8.208;2023-04-25T08:59:43;4.47;;;2.60;;
18455;SDS011;9357;49.900;8.208;2023-04-25T09:01:17;3.03;;;2.37;;
18455;SDS011;9357;49.900;8.208;2023-04-25T09:02:50;7.50;;;2.90;;
18455;SDS011;9357;49.900;8.208;2023-04-25T09:04:24;4.10;;;2.40;;
18455;SDS011;9357;49.900;8.208;2023-04-25T09:05:57;4.53;;;2.53;;
18455;SDS011;9357;49.900;8.208;2023-04-25T09:07:31;4.37;;;2.50;;
18455;SDS011;9357;49.900;8.208;2023-04-25T09:09:05;9.00;;;3.10;;
18455;SDS011;9357;49.900;8.208;2023-04-25T09:10:40;7.70;;;3.00;;
18455;SDS011;9357;49.900;8.208;2023-04-25T09:12:13;5.97;;;2.47;;
18455;SDS011;9357;49.900;8.208;2023-04-25T09:13:46;4.03;;;2.50;;
18455;SDS011;9357;49.900;8.208;2023-04-25T09:15:19;5.43;;;2.80;;
18455;SDS011;9357;49.900;8.208;2023-04-25T09:16:59;3.73;;;2.60;;
18455;SDS011;9357;49.900;8.208;2023-04-25T09:18:34;5.20;;;3.00;;
18455;SDS011;9357;49.900;8.208;2023-04-25T09:20:07;4.53;;;2.90;;
18455;SDS011;9357;49.900;8.208;2023-04-25T09:21:41;3.97;;;2.80;;
18455;SDS011;9357;49.900;8.208;2023-04-25T09:23:17;5.07;;;3.00;;
18455;SDS011;9357;49.900;8.208;2023-04-25T09:24:52;4.40;;;2.70;;
18455;SDS011;9357;49.900;8.208;2023-04-25T09:26:24;9.20;;;3.00;;